createdAt,value
2022-12-25T00:03:20.736Z,8.90
2022-12-25T00:29:26.748Z,8.70
2022-12-25T00:56:53.663Z,8.70
2022-12-25T01:02:17.273Z,8.70
2022-12-25T01:17:56.577Z,8.80
2022-12-25T01:23:07.534Z,8.90
2022-12-25T02:00:26.671Z,8.60
2022-12-25T02:10:52.569Z,8.60
2022-12-25T02:37:12.095Z,8.50
2022-12-25T02:52:50.812Z,8.60
2022-12-25T02:58:14.397Z,8.60
2022-12-25T04:40:20.706Z,8.50
2022-12-25T04:45:24.800Z,8.60
2022-12-25T04:50:27.023Z,8.60
2022-12-25T05:05:56.546Z,8.60
2022-12-25T05:11:02.213Z,8.60
2022-12-25T05:31:59.051Z,8.50
2022-12-25T05:37:01.259Z,8.40
2022-12-25T05:42:03.414Z,8.40
2022-12-25T05:47:25.283Z,8.40
2022-12-25T05:52:33.167Z,8.40
2022-12-25T06:08:25.910Z,8.30
2022-12-25T06:13:28.050Z,8.30
2022-12-25T06:18:31.753Z,8.30
2022-12-25T06:28:49.700Z,8.20
2022-12-25T06:39:11.539Z,8.20
2022-12-25T06:44:14.816Z,8.20
2022-12-25T06:49:16.691Z,8.10
2022-12-25T07:04:55.095Z,7.90
2022-12-25T07:10:05.163Z,7.90
2022-12-25T07:20:47.851Z,7.90
2022-12-25T07:36:35.797Z,8.00
2022-12-25T07:41:43.230Z,8.00
2022-12-25T07:51:59.822Z,7.90
2022-12-25T08:02:17.863Z,7.90
2022-12-25T08:17:50.695Z,7.70
2022-12-25T08:22:54.233Z,7.70
2022-12-25T08:33:17.850Z,7.60
2022-12-25T08:38:25.352Z,7.60
2022-12-25T08:43:28.915Z,7.70
2022-12-25T08:48:31.272Z,7.80
2022-12-25T08:53:33.407Z,7.80
2022-12-25T09:04:07.156Z,8.30
2022-12-25T09:09:09.387Z,8.40
2022-12-25T09:14:13.932Z,8.60
2022-12-25T09:19:19.611Z,8.60
2022-12-25T09:24:23.240Z,8.60
2022-12-25T09:29:25.722Z,8.80
2022-12-25T09:34:52.834Z,9.10
2022-12-25T09:40:02.538Z,9.30
2022-12-25T09:45:18.422Z,9.60
2022-12-25T09:50:27.158Z,9.60
2022-12-25T09:55:33.987Z,9.70
2022-12-25T10:00:43.880Z,9.80
2022-12-25T10:06:00.583Z,9.80
2022-12-25T10:11:21.133Z,9.90
2022-12-25T10:16:35.267Z,10.00
2022-12-25T10:21:39.907Z,10.20
2022-12-25T10:27:25.395Z,10.40
2022-12-25T10:32:27.539Z,10.30
2022-12-25T10:37:31.383Z,10.40
2022-12-25T10:42:42.125Z,10.40
2022-12-25T10:58:34.786Z,11.70
2022-12-25T11:03:40.433Z,12.10
2022-12-25T11:08:43.213Z,12.40
2022-12-25T11:25:58.522Z,13.10
2022-12-25T11:31:30.193Z,13.40
2022-12-25T11:36:42.722Z,13.30
2022-12-25T11:41:47.545Z,13.60
2022-12-25T11:46:52.322Z,13.80
2022-12-25T11:52:00.968Z,13.90
2022-12-25T11:57:07.750Z,13.90
2022-12-25T12:02:26.465Z,14.00
2022-12-25T12:07:31.671Z,14.10
2022-12-25T12:12:48.861Z,14.60
2022-12-25T12:17:51.479Z,15.00
2022-12-25T12:22:54.093Z,15.20
2022-12-25T12:28:04.883Z,16.30
2022-12-25T12:33:09.295Z,17.60
2022-12-25T12:38:18.164Z,18.20
2022-12-25T12:43:34.661Z,18.40
2022-12-25T12:48:42.416Z,18.50
2022-12-25T12:53:44.856Z,18.70
2022-12-25T12:58:51.189Z,18.70
2022-12-25T13:04:28.713Z,19.00
2022-12-25T13:09:42.407Z,19.30
2022-12-25T13:14:48.298Z,19.10
2022-12-25T13:19:55.016Z,19.30
2022-12-25T13:24:59.225Z,19.20
2022-12-25T13:30:14.670Z,18.50
2022-12-25T13:35:18.613Z,18.20
2022-12-25T13:40:26.248Z,17.30
2022-12-25T13:45:34.604Z,16.40
2022-12-25T13:50:37.887Z,15.80
2022-12-25T13:55:40.828Z,15.40
2022-12-25T14:00:53.519Z,15.10
2022-12-25T14:05:59.903Z,14.50
2022-12-25T14:11:04.028Z,14.00
2022-12-25T14:16:09.277Z,13.20
2022-12-25T14:21:16.652Z,12.60
2022-12-25T14:26:20.368Z,12.10
2022-12-25T14:31:25.942Z,11.60
2022-12-25T14:36:28.739Z,11.10
2022-12-25T14:41:37.089Z,10.70
2022-12-25T14:46:40.696Z,10.40
2022-12-25T14:51:44.692Z,10.00
2022-12-25T14:56:48.555Z,9.70
2022-12-25T15:01:55.116Z,9.50
2022-12-25T15:07:06.953Z,9.20
2022-12-25T15:12:09.230Z,9.10
2022-12-25T15:17:27.479Z,9.00
2022-12-25T15:22:54.277Z,8.80
2022-12-25T15:27:55.198Z,8.80
2022-12-25T15:32:58.750Z,8.70
2022-12-25T15:38:01.347Z,8.60
2022-12-25T15:43:11.426Z,8.60
2022-12-25T15:48:26.524Z,8.50
2022-12-25T15:53:28.867Z,8.40
2022-12-25T15:58:31.057Z,8.30
2022-12-25T16:03:34.633Z,8.20
2022-12-25T16:08:36.967Z,8.10
2022-12-25T16:13:39.152Z,8.10
2022-12-25T16:18:47.421Z,8.00
2022-12-25T16:23:50.127Z,7.90
2022-12-25T16:28:52.288Z,7.90
2022-12-25T16:33:56.613Z,7.90
2022-12-25T16:38:58.803Z,7.90
2022-12-25T16:44:04.835Z,7.80
2022-12-25T16:49:08.801Z,7.80
2022-12-25T16:54:10.937Z,7.70
2022-12-25T16:59:13.349Z,7.70
2022-12-25T17:04:16.871Z,7.60
2022-12-25T17:09:19.031Z,7.60
2022-12-25T17:14:21.203Z,7.60
2022-12-25T17:19:25.226Z,7.50
2022-12-25T17:24:28.925Z,7.50
2022-12-25T17:29:34.412Z,7.50
2022-12-25T17:34:37.996Z,7.50
2022-12-25T17:39:42.483Z,7.40
2022-12-25T17:44:44.595Z,7.40
2022-12-25T17:49:48.131Z,7.30
2022-12-25T17:54:50.922Z,7.20
2022-12-25T17:59:53.973Z,7.10
2022-12-25T18:04:57.814Z,6.90
2022-12-25T18:09:59.995Z,6.90
2022-12-25T18:15:02.242Z,6.80
2022-12-25T18:20:06.299Z,6.80
2022-12-25T18:25:09.250Z,6.70
2022-12-25T18:30:11.911Z,6.60
2022-12-25T18:35:15.486Z,6.50
2022-12-25T18:40:17.859Z,6.50
2022-12-25T18:45:20.909Z,6.60
2022-12-25T18:50:24.693Z,6.60
2022-12-25T18:55:27.921Z,6.60
2022-12-25T19:00:32.398Z,6.50
2022-12-25T19:05:44.093Z,6.50
2022-12-25T19:10:47.173Z,6.50
2022-12-25T19:15:52.154Z,7.00
2022-12-25T19:20:58.074Z,6.90
2022-12-25T19:26:01.727Z,6.70
2022-12-25T19:31:07.774Z,6.60
2022-12-25T19:36:14.778Z,6.30
2022-12-25T19:41:20.666Z,6.20
2022-12-25T19:46:25.067Z,6.20
2022-12-25T19:51:33.683Z,6.10
2022-12-25T19:56:36.934Z,6.10
2022-12-25T20:01:42.612Z,6.10
2022-12-25T20:06:50.265Z,6.00
2022-12-25T20:11:53.206Z,5.90
2022-12-25T20:16:55.755Z,6.00
2022-12-25T20:22:01.116Z,5.90
2022-12-25T20:42:48.558Z,5.90
2022-12-25T20:58:28.772Z,5.70
2022-12-25T21:08:50.684Z,5.60
2022-12-25T21:13:54.503Z,5.60
2022-12-25T21:18:56.663Z,5.50
2022-12-25T21:23:58.833Z,5.50
2022-12-25T21:39:58.624Z,5.20
2022-12-25T21:50:24.674Z,5.10
2022-12-25T22:00:57.914Z,4.90
2022-12-25T22:11:45.647Z,4.80
2022-12-25T22:27:26.820Z,4.90
2022-12-25T22:42:56.803Z,5.10
2022-12-25T22:47:58.940Z,5.20
2022-12-25T22:53:02.654Z,5.20
2022-12-25T23:03:22.140Z,5.60
2022-12-25T23:19:32.357Z,5.40
2022-12-25T23:35:17.416Z,4.90
2022-12-25T23:40:18.732Z,4.80
2022-12-25T23:45:20.881Z,4.80
2022-12-25T23:50:24.383Z,4.80
2022-12-25T23:55:26.543Z,4.70
